sensor_id;sensor_type;location;lat;lon;timestamp;pressure;altitude;pressure_sealevel;temperature;humidity
27712;BME280;2377;51.734;8.950;2024-03-29T00:01:24;95851.38;;;7.70;73.74
27712;BME280;2377;51.734;8.950;2024-03-29T00:03:49;95845.81;;;7.73;73.77
27712;BME280;2377;51.734;8.950;2024-03-29T00:06:15;95842.25;;;7.74;73.64
27712;BME280;2377;51.734;8.950;2024-03-29T00:08:41;95831.06;;;7.75;74.27
27712;BME280;2377;51.734;8.950;2024-03-29T00:11:07;95838.16;;;7.73;73.27
27712;BME280;2377;51.734;8.950;2024-03-29T00:13:33;95844.50;;;7.71;73.35
27712;BME280;2377;51.734;8.950;2024-03-29T00:15:58;95841.97;;;7.71;73.29
27712;BME280;2377;51.734;8.950;2024-03-29T00:18:24;95839.19;;;7.72;73.32
27712;BME280;2377;51.734;8.950;2024-03-29T00:20:50;95837.38;;;7.68;73.68
27712;BME280;2377;51.734;8.950;2024-03-29T00:23:15;95846.78;;;7.67;73.31
27712;BME280;2377;51.734;8.950;2024-03-29T00:25:41;95845.22;;;7.66;73.67
27712;BME280;2377;51.734;8.950;2024-03-29T00:28:07;95842.94;;;7.65;73.19
27712;BME280;2377;51.734;8.950;2024-03-29T00:30:33;95847.75;;;7.61;73.35
27712;BME280;2377;51.734;8.950;2024-03-29T00:32:58;95844.41;;;7.55;73.59
27712;BME280;2377;51.734;8.950;2024-03-29T00:35:24;95847.69;;;7.56;73.54
27712;BME280;2377;51.734;8.950;2024-03-29T00:37:50;95837.78;;;7.54;73.88
27712;BME280;2377;51.734;8.950;2024-03-29T00:40:18;95841.03;;;7.50;74.15
27712;BME280;2377;51.734;8.950;2024-03-29T00:42:45;95838.97;;;7.47;74.15
27712;BME280;2377;51.734;8.950;2024-03-29T00:45:11;95842.47;;;7.40;74.41
27712;BME280;2377;51.734;8.950;2024-03-29T00:47:37;95839.66;;;7.37;73.91
27712;BME280;2377;51.734;8.950;2024-03-29T00:50:03;95841.91;;;7.33;74.37
27712;BME280;2377;51.734;8.950;2024-03-29T00:52:28;95840.06;;;7.29;74.45
27712;BME280;2377;51.734;8.950;2024-03-29T00:54:54;95829.34;;;7.22;74.45
27712;BME280;2377;51.734;8.950;2024-03-29T00:57:20;95834.16;;;7.18;75.03
27712;BME280;2377;51.734;8.950;2024-03-29T00:59:46;95831.84;;;7.16;74.86
27712;BME280;2377;51.734;8.950;2024-03-29T01:02:12;95821.63;;;7.11;75.72
27712;BME280;2377;51.734;8.950;2024-03-29T01:04:38;95825.94;;;7.11;75.51
27712;BME280;2377;51.734;8.950;2024-03-29T01:07:06;95823.59;;;7.04;75.58
27712;BME280;2377;51.734;8.950;2024-03-29T01:09:31;95823.28;;;7.01;75.58
27712;BME280;2377;51.734;8.950;2024-03-29T01:11:57;95813.84;;;6.96;75.97
27712;BME280;2377;51.734;8.950;2024-03-29T01:14:23;95818.44;;;6.94;76.31
27712;BME280;2377;51.734;8.950;2024-03-29T01:16:48;95822.19;;;6.91;76.56
27712;BME280;2377;51.734;8.950;2024-03-29T01:19:14;95818.59;;;6.87;76.48
27712;BME280;2377;51.734;8.950;2024-03-29T01:21:40;95820.31;;;6.82;76.78
27712;BME280;2377;51.734;8.950;2024-03-29T01:24:05;95829.16;;;6.79;77.70
27712;BME280;2377;51.734;8.950;2024-03-29T01:26:31;95845.34;;;6.73;78.28
27712;BME280;2377;51.734;8.950;2024-03-29T01:28:57;95853.19;;;6.71;78.74
27712;BME280;2377;51.734;8.950;2024-03-29T01:31:23;95854.66;;;6.67;78.67
27712;BME280;2377;51.734;8.950;2024-03-29T01:33:50;95852.88;;;6.68;78.41
27712;BME280;2377;51.734;8.950;2024-03-29T01:36:16;95857.47;;;6.66;78.97
27712;BME280;2377;51.734;8.950;2024-03-29T01:38:42;95841.28;;;6.72;79.18
27712;BME280;2377;51.734;8.950;2024-03-29T01:41:08;95848.34;;;6.70;79.08
27712;BME280;2377;51.734;8.950;2024-03-29T01:43:34;95842.75;;;6.68;79.15
27712;BME280;2377;51.734;8.950;2024-03-29T01:45:59;95850.19;;;6.74;78.93
27712;BME280;2377;51.734;8.950;2024-03-29T01:48:27;95842.28;;;6.71;79.10
27712;BME280;2377;51.734;8.950;2024-03-29T01:50:56;95842.81;;;6.73;79.31
27712;BME280;2377;51.734;8.950;2024-03-29T01:53:23;95842.56;;;6.74;79.60
27712;BME280;2377;51.734;8.950;2024-03-29T01:55:50;95843.88;;;6.77;79.70
27712;BME280;2377;51.734;8.950;2024-03-29T01:58:19;95838.03;;;6.76;79.50
27712;BME280;2377;51.734;8.950;2024-03-29T02:00:53;95854.00;;;6.77;79.57
27712;BME280;2377;51.734;8.950;2024-03-29T02:03:20;95847.69;;;6.80;79.90
27712;BME280;2377;51.734;8.950;2024-03-29T02:05:48;95850.97;;;6.75;80.67
27712;BME280;2377;51.734;8.950;2024-03-29T02:08:17;95848.94;;;6.77;80.05
27712;BME280;2377;51.734;8.950;2024-03-29T02:10:45;95832.19;;;6.76;80.23
27712;BME280;2377;51.734;8.950;2024-03-29T02:13:12;95826.63;;;6.79;79.56
27712;BME280;2377;51.734;8.950;2024-03-29T02:15:40;95836.78;;;6.79;79.99
27712;BME280;2377;51.734;8.950;2024-03-29T02:18:07;95838.59;;;6.84;79.98
27712;BME280;2377;51.734;8.950;2024-03-29T02:20:34;95833.31;;;6.85;80.20
27712;BME280;2377;51.734;8.950;2024-03-29T02:23:11;95842.69;;;6.85;80.19
27712;BME280;2377;51.734;8.950;2024-03-29T02:25:37;95828.41;;;6.78;80.59
27712;BME280;2377;51.734;8.950;2024-03-29T02:28:04;95836.59;;;6.86;80.46
27712;BME280;2377;51.734;8.950;2024-03-29T02:30:30;95834.28;;;6.84;80.54
27712;BME280;2377;51.734;8.950;2024-03-29T02:33:00;95831.75;;;6.84;80.95
27712;BME280;2377;51.734;8.950;2024-03-29T02:35:27;95837.91;;;6.88;80.73
27712;BME280;2377;51.734;8.950;2024-03-29T02:37:53;95843.22;;;6.87;80.28
27712;BME280;2377;51.734;8.950;2024-03-29T02:40:20;95841.50;;;6.92;80.35
27712;BME280;2377;51.734;8.950;2024-03-29T02:42:47;95823.03;;;6.97;79.78
27712;BME280;2377;51.734;8.950;2024-03-29T02:45:13;95820.53;;;7.02;79.56
27712;BME280;2377;51.734;8.950;2024-03-29T02:47:39;95816.22;;;7.03;79.17
27712;BME280;2377;51.734;8.950;2024-03-29T02:50:09;95795.34;;;7.01;79.15
27712;BME280;2377;51.734;8.950;2024-03-29T02:52:35;95795.69;;;7.09;78.87
27712;BME280;2377;51.734;8.950;2024-03-29T02:55:00;95800.03;;;7.09;79.31
27712;BME280;2377;51.734;8.950;2024-03-29T02:57:26;95804.63;;;7.12;79.17
27712;BME280;2377;51.734;8.950;2024-03-29T02:59:52;95802.84;;;7.12;79.03
27712;BME280;2377;51.734;8.950;2024-03-29T03:02:17;95796.28;;;7.16;78.92
27712;BME280;2377;51.734;8.950;2024-03-29T03:04:43;95796.53;;;7.15;78.88
27712;BME280;2377;51.734;8.950;2024-03-29T03:07:09;95805.19;;;7.19;79.08
27712;BME280;2377;51.734;8.950;2024-03-29T03:09:53;95806.75;;;7.20;78.57
27712;BME280;2377;51.734;8.950;2024-03-29T03:12:47;95789.50;;;7.22;78.48
27712;BME280;2377;51.734;8.950;2024-03-29T03:15:18;95797.59;;;7.24;78.52
27712;BME280;2377;51.734;8.950;2024-03-29T03:17:43;95811.63;;;7.27;78.40
27712;BME280;2377;51.734;8.950;2024-03-29T03:20:09;95792.06;;;7.27;78.92
27712;BME280;2377;51.734;8.950;2024-03-29T03:22:35;95797.16;;;7.27;78.03
27712;BME280;2377;51.734;8.950;2024-03-29T03:25:01;95804.25;;;7.25;77.55
27712;BME280;2377;51.734;8.950;2024-03-29T03:27:27;95792.59;;;7.29;78.38
27712;BME280;2377;51.734;8.950;2024-03-29T03:29:52;95790.56;;;7.31;77.96
27712;BME280;2377;51.734;8.950;2024-03-29T03:32:18;95789.78;;;7.31;77.89
27712;BME280;2377;51.734;8.950;2024-03-29T03:34:44;95778.34;;;7.28;77.70
27712;BME280;2377;51.734;8.950;2024-03-29T03:37:09;95788.53;;;7.33;78.14
27712;BME280;2377;51.734;8.950;2024-03-29T03:39:35;95799.22;;;7.35;77.51
27712;BME280;2377;51.734;8.950;2024-03-29T03:42:00;95788.81;;;7.32;77.91
27712;BME280;2377;51.734;8.950;2024-03-29T03:44:26;95779.16;;;7.34;77.79
27712;BME280;2377;51.734;8.950;2024-03-29T03:46:54;95798.25;;;7.36;77.00
27712;BME280;2377;51.734;8.950;2024-03-29T03:49:20;95799.53;;;7.39;77.29
27712;BME280;2377;51.734;8.950;2024-03-29T03:51:46;95802.84;;;7.39;77.30
27712;BME280;2377;51.734;8.950;2024-03-29T03:54:11;95794.69;;;7.37;76.87
27712;BME280;2377;51.734;8.950;2024-03-29T03:56:37;95809.44;;;7.40;77.22
27712;BME280;2377;51.734;8.950;2024-03-29T03:59:03;95813.00;;;7.39;76.70
27712;BME280;2377;51.734;8.950;2024-03-29T04:01:28;95809.50;;;7.46;76.78
27712;BME280;2377;51.734;8.950;2024-03-29T04:03:57;95805.44;;;7.50;75.88
27712;BME280;2377;51.734;8.950;2024-03-29T04:06:22;95806.97;;;7.46;76.35
27712;BME280;2377;51.734;8.950;2024-03-29T04:08:48;95819.19;;;7.49;76.37
27712;BME280;2377;51.734;8.950;2024-03-29T04:11:14;95821.00;;;7.53;75.99
27712;BME280;2377;51.734;8.950;2024-03-29T04:13:42;95824.25;;;7.49;76.89
27712;BME280;2377;51.734;8.950;2024-03-29T04:16:08;95823.78;;;7.52;76.26
27712;BME280;2377;51.734;8.950;2024-03-29T04:18:34;95809.78;;;7.49;77.38
27712;BME280;2377;51.734;8.950;2024-03-29T04:21:02;95828.84;;;7.52;76.66
27712;BME280;2377;51.734;8.950;2024-03-29T04:23:28;95830.41;;;7.53;76.92
27712;BME280;2377;51.734;8.950;2024-03-29T04:25:54;95829.38;;;7.54;77.67
27712;BME280;2377;51.734;8.950;2024-03-29T04:28:20;95848.97;;;7.53;77.22
27712;BME280;2377;51.734;8.950;2024-03-29T04:30:57;95850.25;;;7.56;77.94
27712;BME280;2377;51.734;8.950;2024-03-29T04:33:24;95846.13;;;7.50;77.64
27712;BME280;2377;51.734;8.950;2024-03-29T04:36:03;95864.97;;;7.54;76.90
27712;BME280;2377;51.734;8.950;2024-03-29T04:38:30;95856.84;;;7.57;77.69
27712;BME280;2377;51.734;8.950;2024-03-29T04:40:58;95850.06;;;7.62;77.82
27712;BME280;2377;51.734;8.950;2024-03-29T04:43:28;95857.91;;;7.61;76.65
27712;BME280;2377;51.734;8.950;2024-03-29T04:46:08;95862.47;;;7.59;77.72
27712;BME280;2377;51.734;8.950;2024-03-29T04:48:39;95860.44;;;7.61;77.41
27712;BME280;2377;51.734;8.950;2024-03-29T04:51:05;95850.81;;;7.63;77.33
27712;BME280;2377;51.734;8.950;2024-03-29T04:53:31;95863.28;;;7.65;77.20
27712;BME280;2377;51.734;8.950;2024-03-29T04:55:58;95858.22;;;7.65;77.18
27712;BME280;2377;51.734;8.950;2024-03-29T04:58:25;95865.03;;;7.64;77.02
27712;BME280;2377;51.734;8.950;2024-03-29T05:00:52;95853.88;;;7.65;77.68
27712;BME280;2377;51.734;8.950;2024-03-29T05:03:19;95858.75;;;7.67;78.21
27712;BME280;2377;51.734;8.950;2024-03-29T05:05:52;95844.78;;;7.69;77.91
27712;BME280;2377;51.734;8.950;2024-03-29T05:08:19;95834.59;;;7.69;78.16
27712;BME280;2377;51.734;8.950;2024-03-29T05:10:46;95838.44;;;7.72;77.72
27712;BME280;2377;51.734;8.950;2024-03-29T05:13:12;95844.28;;;7.72;78.33
27712;BME280;2377;51.734;8.950;2024-03-29T05:15:38;95838.44;;;7.72;78.05
27712;BME280;2377;51.734;8.950;2024-03-29T05:18:04;95833.63;;;7.75;77.76
27712;BME280;2377;51.734;8.950;2024-03-29T05:20:31;95830.06;;;7.76;78.36
27712;BME280;2377;51.734;8.950;2024-03-29T05:22:58;95828.81;;;7.79;77.97
27712;BME280;2377;51.734;8.950;2024-03-29T05:25:25;95827.31;;;7.83;78.64
27712;BME280;2377;51.734;8.950;2024-03-29T05:27:51;95819.44;;;7.84;78.75
27712;BME280;2377;51.734;8.950;2024-03-29T05:30:16;95821.97;;;7.84;78.99
27712;BME280;2377;51.734;8.950;2024-03-29T05:32:43;95826.31;;;7.84;79.22
27712;BME280;2377;51.734;8.950;2024-03-29T05:35:09;95819.44;;;7.84;78.79
27712;BME280;2377;51.734;8.950;2024-03-29T05:37:36;95815.38;;;7.83;79.21
27712;BME280;2377;51.734;8.950;2024-03-29T05:40:02;95818.16;;;7.82;79.85
27712;BME280;2377;51.734;8.950;2024-03-29T05:42:33;95820.47;;;7.83;79.17
27712;BME280;2377;51.734;8.950;2024-03-29T05:45:00;95818.44;;;7.86;79.57
27712;BME280;2377;51.734;8.950;2024-03-29T05:47:25;95821.50;;;7.88;79.27
27712;BME280;2377;51.734;8.950;2024-03-29T05:49:51;95821.22;;;7.84;79.88
27712;BME280;2377;51.734;8.950;2024-03-29T05:52:17;95809.03;;;7.86;79.61
27712;BME280;2377;51.734;8.950;2024-03-29T05:54:44;95808.53;;;7.89;79.15
27712;BME280;2377;51.734;8.950;2024-03-29T05:57:10;95811.84;;;7.90;79.54
27712;BME280;2377;51.734;8.950;2024-03-29T05:59:37;95807.78;;;7.89;78.86
27712;BME280;2377;51.734;8.950;2024-03-29T06:02:04;95801.94;;;7.88;78.70
27712;BME280;2377;51.734;8.950;2024-03-29T06:04:30;95793.03;;;7.91;78.69
27712;BME280;2377;51.734;8.950;2024-03-29T06:07:02;95779.56;;;7.90;78.81
27712;BME280;2377;51.734;8.950;2024-03-29T06:09:29;95771.41;;;7.88;78.90
27712;BME280;2377;51.734;8.950;2024-03-29T06:11:56;95771.41;;;7.88;79.85
27712;BME280;2377;51.734;8.950;2024-03-29T06:14:26;95765.53;;;7.88;79.94
27712;BME280;2377;51.734;8.950;2024-03-29T06:17:10;95764.78;;;7.87;79.85
27712;BME280;2377;51.734;8.950;2024-03-29T06:19:50;95763.50;;;7.84;81.04
27712;BME280;2377;51.734;8.950;2024-03-29T06:22:19;95767.59;;;7.86;80.69
27712;BME280;2377;51.734;8.950;2024-03-29T06:24:45;95768.59;;;7.84;81.45
27712;BME280;2377;51.734;8.950;2024-03-29T06:27:13;95769.09;;;7.87;82.30
27712;BME280;2377;51.734;8.950;2024-03-29T06:29:43;95769.63;;;7.89;82.30
27712;BME280;2377;51.734;8.950;2024-03-29T06:32:09;95779.28;;;7.87;82.92
27712;BME280;2377;51.734;8.950;2024-03-29T06:34:35;95770.38;;;7.89;83.45
27712;BME280;2377;51.734;8.950;2024-03-29T06:37:01;95771.66;;;7.87;84.22
27712;BME280;2377;51.734;8.950;2024-03-29T06:39:27;95765.28;;;7.84;84.84
27712;BME280;2377;51.734;8.950;2024-03-29T06:41:53;95757.88;;;7.82;85.75
27712;BME280;2377;51.734;8.950;2024-03-29T06:44:18;95760.41;;;7.77;86.84
27712;BME280;2377;51.734;8.950;2024-03-29T06:46:45;95767.78;;;7.79;87.25
27712;BME280;2377;51.734;8.950;2024-03-29T06:49:11;95750.47;;;7.76;88.11
27712;BME280;2377;51.734;8.950;2024-03-29T06:51:39;95747.44;;;7.74;87.65
27712;BME280;2377;51.734;8.950;2024-03-29T06:54:04;95744.38;;;7.77;88.93
27712;BME280;2377;51.734;8.950;2024-03-29T06:56:30;95745.91;;;7.78;89.17
27712;BME280;2377;51.734;8.950;2024-03-29T06:58:56;95741.59;;;7.78;89.17
27712;BME280;2377;51.734;8.950;2024-03-29T07:01:21;95744.16;;;7.78;89.70
27712;BME280;2377;51.734;8.950;2024-03-29T07:03:47;95763.47;;;7.79;90.60
27712;BME280;2377;51.734;8.950;2024-03-29T07:06:13;95747.72;;;7.82;90.58
27712;BME280;2377;51.734;8.950;2024-03-29T07:08:39;95746.19;;;7.81;90.97
27712;BME280;2377;51.734;8.950;2024-03-29T07:11:04;95748.75;;;7.81;91.20
27712;BME280;2377;51.734;8.950;2024-03-29T07:13:31;95729.69;;;7.84;90.93
27712;BME280;2377;51.734;8.950;2024-03-29T07:16:00;95735.81;;;7.88;90.75
27712;BME280;2377;51.734;8.950;2024-03-29T07:18:26;95736.56;;;7.89;90.76
27712;BME280;2377;51.734;8.950;2024-03-29T07:20:52;95754.69;;;7.97;90.92
27712;BME280;2377;51.734;8.950;2024-03-29T07:23:18;95753.63;;;7.93;91.08
27712;BME280;2377;51.734;8.950;2024-03-29T07:25:45;95738.34;;;7.88;91.72
27712;BME280;2377;51.734;8.950;2024-03-29T07:28:12;95761.75;;;7.90;91.65
27712;BME280;2377;51.734;8.950;2024-03-29T07:30:41;95770.38;;;7.84;91.38
27712;BME280;2377;51.734;8.950;2024-03-29T07:33:07;95772.97;;;7.99;91.61
27712;BME280;2377;51.734;8.950;2024-03-29T07:35:35;95768.19;;;8.03;91.05
27712;BME280;2377;51.734;8.950;2024-03-29T07:38:00;95770.50;;;8.04;91.43
27712;BME280;2377;51.734;8.950;2024-03-29T07:40:26;95772.78;;;8.06;91.33
27712;BME280;2377;51.734;8.950;2024-03-29T07:42:52;95780.41;;;8.06;92.65
27712;BME280;2377;51.734;8.950;2024-03-29T07:45:18;95778.63;;;8.07;92.52
27712;BME280;2377;51.734;8.950;2024-03-29T07:47:43;95772.00;;;8.05;92.88
27712;BME280;2377;51.734;8.950;2024-03-29T07:50:09;95768.72;;;8.05;92.78
27712;BME280;2377;51.734;8.950;2024-03-29T07:52:35;95775.06;;;8.08;93.33
27712;BME280;2377;51.734;8.950;2024-03-29T07:55:01;95779.66;;;8.11;93.89
27712;BME280;2377;51.734;8.950;2024-03-29T07:57:27;95774.31;;;8.07;94.60
27712;BME280;2377;51.734;8.950;2024-03-29T07:59:52;95764.13;;;8.07;95.37
27712;BME280;2377;51.734;8.950;2024-03-29T08:02:18;95767.16;;;8.04;95.57
27712;BME280;2377;51.734;8.950;2024-03-29T08:04:44;95774.84;;;8.14;95.42
27712;BME280;2377;51.734;8.950;2024-03-29T08:07:10;95775.09;;;8.13;95.79
27712;BME280;2377;51.734;8.950;2024-03-29T08:09:38;95785.03;;;8.14;96.61
27712;BME280;2377;51.734;8.950;2024-03-29T08:12:05;95789.59;;;8.12;97.54
27712;BME280;2377;51.734;8.950;2024-03-29T08:14:31;95783.00;;;8.16;97.31
27712;BME280;2377;51.734;8.950;2024-03-29T08:16:57;95778.44;;;8.18;96.32
27712;BME280;2377;51.734;8.950;2024-03-29T08:19:27;95779.44;;;8.17;96.68
27712;BME280;2377;51.734;8.950;2024-03-29T08:21:53;95792.19;;;8.22;96.54
27712;BME280;2377;51.734;8.950;2024-03-29T08:24:19;95785.84;;;8.25;97.03
27712;BME280;2377;51.734;8.950;2024-03-29T08:26:44;95792.19;;;8.22;96.76
27712;BME280;2377;51.734;8.950;2024-03-29T08:29:10;95786.88;;;8.24;96.76
27712;BME280;2377;51.734;8.950;2024-03-29T08:31:36;95789.19;;;8.31;95.96
27712;BME280;2377;51.734;8.950;2024-03-29T08:34:02;95795.09;;;8.41;96.65
27712;BME280;2377;51.734;8.950;2024-03-29T08:36:28;95806.06;;;8.42;96.53
27712;BME280;2377;51.734;8.950;2024-03-29T08:38:57;95807.06;;;8.41;96.82
27712;BME280;2377;51.734;8.950;2024-03-29T08:41:23;95803.03;;;8.50;96.34
27712;BME280;2377;51.734;8.950;2024-03-29T08:43:48;95805.59;;;8.50;96.79
27712;BME280;2377;51.734;8.950;2024-03-29T08:46:14;95808.41;;;8.54;96.16
27712;BME280;2377;51.734;8.950;2024-03-29T08:48:39;95808.66;;;8.52;96.36
27712;BME280;2377;51.734;8.950;2024-03-29T08:51:08;95799.22;;;8.53;96.38
27712;BME280;2377;51.734;8.950;2024-03-29T08:53:35;95809.72;;;8.61;96.13
27712;BME280;2377;51.734;8.950;2024-03-29T08:56:00;95798.50;;;8.67;95.48
27712;BME280;2377;51.734;8.950;2024-03-29T08:58:26;95811.78;;;8.75;95.74
27712;BME280;2377;51.734;8.950;2024-03-29T09:00:56;95822.53;;;8.82;95.85
27712;BME280;2377;51.734;8.950;2024-03-29T09:03:23;95818.44;;;8.91;96.13
27712;BME280;2377;51.734;8.950;2024-03-29T09:05:49;95815.94;;;9.01;96.22
27712;BME280;2377;51.734;8.950;2024-03-29T09:08:17;95810.34;;;9.09;94.60
27712;BME280;2377;51.734;8.950;2024-03-29T09:10:43;95812.88;;;9.09;94.86
27712;BME280;2377;51.734;8.950;2024-03-29T09:13:09;95801.47;;;9.22;95.32
27712;BME280;2377;51.734;8.950;2024-03-29T09:15:36;95799.66;;;9.23;93.96
27712;BME280;2377;51.734;8.950;2024-03-29T09:18:02;95791.50;;;9.31;94.02
27712;BME280;2377;51.734;8.950;2024-03-29T09:20:38;95786.44;;;9.41;94.28
27712;BME280;2377;51.734;8.950;2024-03-29T09:23:04;95784.13;;;9.45;93.18
27712;BME280;2377;51.734;8.950;2024-03-29T09:25:30;95796.38;;;9.48;93.36
27712;BME280;2377;51.734;8.950;2024-03-29T09:27:57;95787.22;;;9.57;93.71
27712;BME280;2377;51.734;8.950;2024-03-29T09:30:23;95787.94;;;9.68;93.43
27712;BME280;2377;51.734;8.950;2024-03-29T09:32:49;95800.72;;;9.63;92.92
27712;BME280;2377;51.734;8.950;2024-03-29T09:35:17;95800.69;;;9.73;92.88
27712;BME280;2377;51.734;8.950;2024-03-29T09:37:43;95800.69;;;9.68;92.47
27712;BME280;2377;51.734;8.950;2024-03-29T09:40:11;95808.09;;;9.80;92.69
27712;BME280;2377;51.734;8.950;2024-03-29T09:42:39;95811.13;;;9.92;93.27
27712;BME280;2377;51.734;8.950;2024-03-29T09:45:07;95816.50;;;9.95;92.25
27712;BME280;2377;51.734;8.950;2024-03-29T09:47:35;95820.06;;;10.05;92.73
27712;BME280;2377;51.734;8.950;2024-03-29T09:50:07;95820.03;;;10.10;92.95
27712;BME280;2377;51.734;8.950;2024-03-29T09:52:33;95819.00;;;10.11;92.19
27712;BME280;2377;51.734;8.950;2024-03-29T09:55:01;95814.44;;;10.28;92.31
27712;BME280;2377;51.734;8.950;2024-03-29T09:57:27;95817.22;;;10.32;92.16
27712;BME280;2377;51.734;8.950;2024-03-29T09:59:57;95818.47;;;10.34;91.73
27712;BME280;2377;51.734;8.950;2024-03-29T10:02:29;95831.25;;;10.40;91.94
27712;BME280;2377;51.734;8.950;2024-03-29T10:04:56;95819.97;;;10.46;91.05
27712;BME280;2377;51.734;8.950;2024-03-29T10:07:24;95831.22;;;10.50;90.84
27712;BME280;2377;51.734;8.950;2024-03-29T10:09:51;95824.06;;;10.52;91.03
27712;BME280;2377;51.734;8.950;2024-03-29T10:12:17;95823.53;;;10.55;91.33
27712;BME280;2377;51.734;8.950;2024-03-29T10:14:48;95824.28;;;10.61;90.56
27712;BME280;2377;51.734;8.950;2024-03-29T10:17:33;95826.25;;;10.84;90.27
27712;BME280;2377;51.734;8.950;2024-03-29T10:20:02;95821.19;;;11.18;91.05
27712;BME280;2377;51.734;8.950;2024-03-29T10:22:40;95810.06;;;11.38;90.98
27712;BME280;2377;51.734;8.950;2024-03-29T10:25:06;95816.91;;;11.48;89.93
27712;BME280;2377;51.734;8.950;2024-03-29T10:27:32;95823.53;;;11.49;88.79
27712;BME280;2377;51.734;8.950;2024-03-29T10:29:59;95825.38;;;11.43;88.54
27712;BME280;2377;51.734;8.950;2024-03-29T10:32:25;95838.22;;;11.33;88.02
27712;BME280;2377;51.734;8.950;2024-03-29T10:34:51;95835.41;;;11.35;88.40
27712;BME280;2377;51.734;8.950;2024-03-29T10:37:18;95835.38;;;11.40;88.31
27712;BME280;2377;51.734;8.950;2024-03-29T10:39:51;95833.31;;;11.42;87.72
27712;BME280;2377;51.734;8.950;2024-03-29T10:42:19;95839.84;;;11.58;88.70
27712;BME280;2377;51.734;8.950;2024-03-29T10:44:48;95849.53;;;11.61;88.35
27712;BME280;2377;51.734;8.950;2024-03-29T10:47:19;95842.69;;;11.52;87.39
27712;BME280;2377;51.734;8.950;2024-03-29T10:49:50;95848.56;;;11.57;89.06
27712;BME280;2377;51.734;8.950;2024-03-29T10:52:21;95864.06;;;11.71;87.88
27712;BME280;2377;51.734;8.950;2024-03-29T10:54:47;95860.59;;;11.52;87.00
27712;BME280;2377;51.734;8.950;2024-03-29T10:57:41;95870.38;;;11.45;87.25
27712;BME280;2377;51.734;8.950;2024-03-29T11:00:12;95875.31;;;11.31;88.08
27712;BME280;2377;51.734;8.950;2024-03-29T11:02:51;95893.72;;;11.33;88.13
27712;BME280;2377;51.734;8.950;2024-03-29T11:05:22;95878.38;;;11.33;88.95
27712;BME280;2377;51.734;8.950;2024-03-29T11:07:50;95882.19;;;11.35;88.37
27712;BME280;2377;51.734;8.950;2024-03-29T11:10:25;95879.38;;;11.37;88.50
27712;BME280;2377;51.734;8.950;2024-03-29T11:13:16;95870.19;;;11.31;88.46
27712;BME280;2377;51.734;8.950;2024-03-29T11:15:45;95864.03;;;11.37;88.51
27712;BME280;2377;51.734;8.950;2024-03-29T11:18:14;95875.00;;;11.42;89.02
27712;BME280;2377;51.734;8.950;2024-03-29T11:20:48;95875.47;;;11.50;88.18
27712;BME280;2377;51.734;8.950;2024-03-29T11:23:19;95876.72;;;11.52;88.67
27712;BME280;2377;51.734;8.950;2024-03-29T11:25:50;95881.28;;;11.60;88.49
27712;BME280;2377;51.734;8.950;2024-03-29T11:28:34;95885.34;;;11.67;88.13
27712;BME280;2377;51.734;8.950;2024-03-29T11:31:03;95896.00;;;11.79;88.22
27712;BME280;2377;51.734;8.950;2024-03-29T11:38:49;95883.66;;;11.86;87.45
27712;BME280;2377;51.734;8.950;2024-03-29T11:41:20;95886.22;;;11.86;87.22
27712;BME280;2377;51.734;8.950;2024-03-29T11:43:50;95893.63;;;11.93;86.52
27712;BME280;2377;51.734;8.950;2024-03-29T11:46:17;95885.72;;;11.84;86.85
27712;BME280;2377;51.734;8.950;2024-03-29T11:48:44;95893.66;;;11.82;86.54
27712;BME280;2377;51.734;8.950;2024-03-29T11:51:14;95876.28;;;11.79;86.57
27712;BME280;2377;51.734;8.950;2024-03-29T11:53:43;95882.75;;;11.72;86.87
27712;BME280;2377;51.734;8.950;2024-03-29T11:56:10;95886.53;;;11.79;86.83
27712;BME280;2377;51.734;8.950;2024-03-29T11:58:37;95882.66;;;11.82;86.06
27712;BME280;2377;51.734;8.950;2024-03-29T12:01:04;95880.59;;;11.84;86.32
27712;BME280;2377;51.734;8.950;2024-03-29T12:03:32;95865.75;;;11.86;86.10
27712;BME280;2377;51.734;8.950;2024-03-29T12:05:59;95875.47;;;11.89;85.61
27712;BME280;2377;51.734;8.950;2024-03-29T12:08:38;95876.22;;;11.90;85.71
27712;BME280;2377;51.734;8.950;2024-03-29T12:11:04;95869.28;;;11.95;86.34
27712;BME280;2377;51.734;8.950;2024-03-29T12:13:31;95875.31;;;12.10;85.40
27712;BME280;2377;51.734;8.950;2024-03-29T12:15:59;95881.69;;;12.12;85.82
27712;BME280;2377;51.734;8.950;2024-03-29T12:18:25;95891.63;;;12.19;86.15
27712;BME280;2377;51.734;8.950;2024-03-29T12:20:54;95894.06;;;12.29;86.16
27712;BME280;2377;51.734;8.950;2024-03-29T12:23:21;95892.06;;;12.26;85.23
27712;BME280;2377;51.734;8.950;2024-03-29T12:25:49;95899.50;;;12.22;85.81
27712;BME280;2377;51.734;8.950;2024-03-29T12:28:16;95909.50;;;12.24;86.03
27712;BME280;2377;51.734;8.950;2024-03-29T12:30:47;95907.34;;;12.36;86.21
27712;BME280;2377;51.734;8.950;2024-03-29T12:33:18;95905.00;;;12.40;86.46
27712;BME280;2377;51.734;8.950;2024-03-29T12:35:50;95900.38;;;12.42;85.49
27712;BME280;2377;51.734;8.950;2024-03-29T12:38:18;95888.66;;;12.60;85.60
27712;BME280;2377;51.734;8.950;2024-03-29T12:40:49;95900.97;;;12.58;85.49
27712;BME280;2377;51.734;8.950;2024-03-29T12:43:23;95893.56;;;12.56;84.55
27712;BME280;2377;51.734;8.950;2024-03-29T12:45:52;95905.59;;;12.56;84.52
27712;BME280;2377;51.734;8.950;2024-03-29T12:48:22;95905.78;;;12.64;84.68
27712;BME280;2377;51.734;8.950;2024-03-29T12:50:51;95935.22;;;12.67;84.36
27712;BME280;2377;51.734;8.950;2024-03-29T12:53:19;95940.00;;;12.50;83.45
27712;BME280;2377;51.734;8.950;2024-03-29T12:55:46;95937.28;;;12.65;83.38
27712;BME280;2377;51.734;8.950;2024-03-29T12:58:14;95939.81;;;12.70;84.16
27712;BME280;2377;51.734;8.950;2024-03-29T13:00:42;95930.00;;;12.77;83.13
27712;BME280;2377;51.734;8.950;2024-03-29T13:03:08;95937.09;;;12.85;83.93
27712;BME280;2377;51.734;8.950;2024-03-29T13:05:39;95947.91;;;12.82;82.71
27712;BME280;2377;51.734;8.950;2024-03-29T13:08:11;95933.34;;;12.78;82.40
27712;BME280;2377;51.734;8.950;2024-03-29T13:10:39;95936.22;;;12.71;81.97
27712;BME280;2377;51.734;8.950;2024-03-29T13:13:06;95941.56;;;12.75;81.78
27712;BME280;2377;51.734;8.950;2024-03-29T13:15:35;95956.84;;;12.85;82.93
27712;BME280;2377;51.734;8.950;2024-03-29T13:18:03;95957.59;;;12.85;81.59
27712;BME280;2377;51.734;8.950;2024-03-29T13:20:31;95959.03;;;12.97;81.84
27712;BME280;2377;51.734;8.950;2024-03-29T13:22:58;95957.31;;;13.11;83.90
27712;BME280;2377;51.734;8.950;2024-03-29T13:25:24;95955.50;;;13.36;83.34
27712;BME280;2377;51.734;8.950;2024-03-29T13:27:53;95960.88;;;13.58;82.26